Time,TemperatureF,DewpointF,PressureIn,WindDirection,WindDirectionDegrees,WindSpeedMPH,WindSpeedGustMPH,Humidity,HourlyPrecipIn,Conditions,Clouds,dailyrainin,SoftwareType,DateUTC
2013-02-04 00:00:00,58.3,53.5,30.00,SE,130,2.0,8.0,84,0.00,,---,0.00,VWS V14.01,2013-02-04 06:00:00,
2013-02-04 00:03:00,58.3,53.5,30.00,SE,130,2.0,2.0,84,0.00,,---,0.00,VWS V14.01,2013-02-04 06:03:00,
2013-02-04 00:08:00,58.0,53.5,30.00,South,180,2.0,6.0,85,0.00,,---,0.00,VWS V14.01,2013-02-04 06:08:00,
2013-02-04 00:13:00,58.0,53.8,29.99,SE,138,4.0,6.0,86,0.00,,---,0.00,VWS V14.01,2013-02-04 06:13:00,
2013-02-04 00:18:00,58.1,53.9,30.00,ESE,110,6.0,6.0,86,0.00,,---,0.00,VWS V14.01,2013-02-04 06:18:00,
2013-02-04 00:23:00,58.2,54.0,29.99,SE,127,3.0,6.0,86,0.00,,---,0.00,VWS V14.01,2013-02-04 06:23:00,
2013-02-04 00:28:00,58.2,54.0,29.98,SE,139,1.0,6.0,86,0.00,,---,0.00,VWS V14.01,2013-02-04 06:28:00,
2013-02-04 00:30:00,58.2,54.0,29.98,ESE,115,2.0,6.0,86,0.00,,---,0.00,VWS V14.01,2013-02-04 06:30:00,
2013-02-04 00:33:00,58.3,54.1,29.98,SSE,166,2.0,8.0,86,0.00,,---,0.00,VWS V14.01,2013-02-04 06:33:00,
2013-02-04 00:38:00,58.4,54.5,29.98,SSE,158,3.0,8.0,87,0.00,,---,0.00,VWS V14.01,2013-02-04 06:38:00,
2013-02-04 00:43:00,58.4,54.5,29.98,SSE,162,2.0,8.0,87,0.00,,---,0.00,VWS V14.01,2013-02-04 06:43:00,
2013-02-04 00:48:00,58.4,54.5,29.99,South,188,7.0,8.0,87,0.00,,---,0.00,VWS V14.01,2013-02-04 06:48:00,
2013-02-04 00:53:00,58.5,54.7,29.98,ESE,120,7.0,9.0,87,0.00,,---,0.00,VWS V14.01,2013-02-04 06:53:00,
2013-02-04 00:58:00,58.5,54.7,29.98,East,82,8.0,9.0,87,0.00,,---,0.00,VWS V14.01,2013-02-04 06:58:00,
2013-02-04 01:00:00,58.5,54.7,29.98,SSW,206,3.0,9.0,87,0.00,,---,0.00,VWS V14.01,2013-02-04 07:00:00,
2013-02-04 01:03:00,58.5,55.0,29.98,SE,145,1.0,7.0,88,0.00,,---,0.00,VWS V14.01,2013-02-04 07:03:00,
2013-02-04 01:08:00,58.5,55.0,29.98,SW,214,4.0,7.0,88,0.00,,---,0.00,VWS V14.01,2013-02-04 07:08:00,
2013-02-04 01:13:00,58.5,55.0,29.97,SE,135,3.0,7.0,88,0.00,,---,0.00,VWS V14.01,2013-02-04 07:13:00,
2013-02-04 01:18:00,58.6,55.1,29.97,South,171,3.0,7.0,88,0.00,,---,0.00,VWS V14.01,2013-02-04 07:18:00,
2013-02-04 01:23:00,58.6,55.1,29.97,South,181,3.0,7.0,88,0.00,,---,0.00,VWS V14.01,2013-02-04 07:23:00,
2013-02-04 01:28:00,58.6,55.1,29.97,SE,127,2.0,7.0,88,0.00,,---,0.00,VWS V14.01,2013-02-04 07:28:00,
2013-02-04 01:30:00,58.6,55.1,29.97,SSW,203,2.0,7.0,88,0.00,,---,0.00,VWS V14.01,2013-02-04 07:30:00,
2013-02-04 01:33:00,58.7,55.5,29.97,SE,142,3.0,5.0,89,0.00,,---,0.00,VWS V14.01,2013-02-04 07:33:00,
2013-02-04 01:38:00,58.7,55.5,29.97,ESE,121,3.0,5.0,89,0.00,,---,0.00,VWS V14.01,2013-02-04 07:38:00,
2013-02-04 01:43:00,58.8,55.6,29.97,SSW,201,1.0,5.0,89,0.00,,---,0.00,VWS V14.01,2013-02-04 07:43:00,
2013-02-04 01:48:00,58.8,55.6,29.97,SE,145,2.0,5.0,89,0.00,,---,0.00,VWS V14.01,2013-02-04 07:48:00,
2013-02-04 01:53:00,58.9,55.7,29.97,SSE,155,2.0,5.0,89,0.00,,---,0.00,VWS V14.01,2013-02-04 07:53:00,
2013-02-04 01:58:00,59.0,55.8,29.97,SSE,153,4.0,5.0,89,0.00,,---,0.00,VWS V14.01,2013-02-04 07:58:00,
2013-02-04 02:00:00,59.0,55.8,29.97,SSE,159,5.0,5.0,89,0.00,,---,0.00,VWS V14.01,2013-02-04 08:00:00,
2013-02-04 02:03:00,59.0,55.8,29.97,SE,136,2.0,6.0,89,0.00,,---,0.00,VWS V14.01,2013-02-04 08:03:00,
2013-02-04 02:08:00,59.1,55.9,29.97,South,173,4.0,6.0,89,0.00,,---,0.00,VWS V14.01,2013-02-04 08:08:00,
2013-02-04 02:13:00,59.1,55.9,29.97,SE,131,5.0,7.0,89,0.00,,---,0.00,VWS V14.01,2013-02-04 08:13:00,
2013-02-04 02:18:00,59.2,56.0,29.97,SSE,155,4.0,7.0,89,0.00,,---,0.00,VWS V14.01,2013-02-04 08:18:00,
2013-02-04 02:23:00,59.3,56.1,29.97,SSE,166,5.0,7.0,89,0.00,,---,0.00,VWS V14.01,2013-02-04 08:23:00,
2013-02-04 02:28:00,59.4,56.2,29.96,SSW,197,4.0,7.0,89,0.00,,---,0.00,VWS V14.01,2013-02-04 08:28:00,
2013-02-04 02:30:00,59.4,56.2,29.96,SE,136,5.0,7.0,89,0.00,,---,0.00,VWS V14.01,2013-02-04 08:30:00,
2013-02-04 02:33:00,59.5,56.3,29.96,SSE,151,3.0,7.0,89,0.00,,---,0.00,VWS V14.01,2013-02-04 08:33:00,
2013-02-04 02:38:00,59.5,56.3,29.96,South,174,4.0,8.0,89,0.00,,---,0.00,VWS V14.01,2013-02-04 08:38:00,
2013-02-04 02:43:00,59.6,56.4,29.96,SE,145,3.0,8.0,89,0.00,,---,0.00,VWS V14.01,2013-02-04 08:43:00,
2013-02-04 02:48:00,59.7,56.5,29.95,SSE,162,3.0,8.0,89,0.00,,---,0.00,VWS V14.01,2013-02-04 08:48:00,
2013-02-04 02:53:00,59.7,56.5,29.95,South,183,5.0,8.0,89,0.00,,---,0.00,VWS V14.01,2013-02-04 08:53:00,
2013-02-04 02:58:00,59.8,56.6,29.95,South,190,3.0,8.0,89,0.00,,---,0.00,VWS V14.01,2013-02-04 08:58:00,
2013-02-04 03:00:00,59.8,56.6,29.95,SE,131,2.0,8.0,89,0.00,,---,0.00,VWS V14.01,2013-02-04 09:00:00,
2013-02-04 03:03:00,59.8,56.6,29.94,SSE,148,3.0,6.0,89,0.00,,---,0.00,VWS V14.01,2013-02-04 09:03:00,
2013-02-04 03:08:00,59.8,56.6,29.94,SSW,200,5.0,9.0,89,0.00,,---,0.00,VWS V14.01,2013-02-04 09:08:00,
2013-02-04 03:13:00,59.8,56.6,29.95,South,190,5.0,9.0,89,0.00,,---,0.00,VWS V14.01,2013-02-04 09:13:00,
2013-02-04 03:18:00,59.8,56.6,29.94,SE,129,4.0,9.0,89,0.00,,---,0.00,VWS V14.01,2013-02-04 09:18:00,
2013-02-04 03:22:00,59.8,56.6,29.94,SE,145,4.0,9.0,89,0.00,,---,0.00,VWS V14.01,2013-02-04 09:22:00,
2013-02-04 03:27:00,59.8,56.6,29.94,SSE,155,4.0,9.0,89,0.00,,---,0.00,VWS V14.01,2013-02-04 09:27:00,
2013-02-04 03:30:00,59.8,56.6,29.94,SE,134,2.0,9.0,89,0.00,,---,0.00,VWS V14.01,2013-02-04 09:30:00,
2013-02-04 03:32:00,59.8,56.6,29.94,SE,143,6.0,9.0,89,0.00,,---,0.00,VWS V14.01,2013-02-04 09:32:00,
2013-02-04 03:37:00,59.8,56.6,29.94,South,174,3.0,10.0,89,0.00,,---,0.00,VWS V14.01,2013-02-04 09:37:00,
2013-02-04 03:42:00,59.8,56.6,29.94,SE,129,4.0,10.0,89,0.00,,---,0.00,VWS V14.01,2013-02-04 09:42:00,
2013-02-04 03:47:00,59.8,56.6,29.94,SE,146,1.0,10.0,89,0.00,,---,0.00,VWS V14.01,2013-02-04 09:47:00,
2013-02-04 03:52:00,59.7,56.5,29.93,ENE,72,8.0,10.0,89,0.00,,---,0.00,VWS V14.01,2013-02-04 09:52:00,
2013-02-04 03:57:00,59.7,56.5,29.93,SSW,195,2.0,10.0,89,0.00,,---,0.00,VWS V14.01,2013-02-04 09:57:00,
2013-02-04 04:00:00,59.7,56.5,29.93,ESE,122,4.0,10.0,89,0.00,,---,0.00,VWS V14.01,2013-02-04 10:00:00,
2013-02-04 04:02:00,59.7,56.5,29.93,SSE,165,4.0,12.0,89,0.00,,---,0.00,VWS V14.01,2013-02-04 10:02:00,
2013-02-04 04:07:00,59.7,56.5,29.93,SSE,147,3.0,12.0,89,0.00,,---,0.00,VWS V14.01,2013-02-04 10:07:00,
2013-02-04 04:12:00,59.6,56.4,29.93,SSE,152,2.0,12.0,89,0.00,,---,0.00,VWS V14.01,2013-02-04 10:12:00,
2013-02-04 04:17:00,59.6,56.4,29.93,SSE,147,7.0,12.0,89,0.00,,---,0.00,VWS V14.01,2013-02-04 10:17:00,
2013-02-04 04:22:00,59.6,56.4,29.93,SW,219,3.0,12.0,89,0.00,,---,0.00,VWS V14.01,2013-02-04 10:22:00,
2013-02-04 04:27:00,59.5,56.3,29.93,South,173,5.0,12.0,89,0.00,,---,0.00,VWS V14.01,2013-02-04 10:27:00,
2013-02-04 04:30:00,59.5,56.3,29.93,South,183,3.0,12.0,89,0.00,,---,0.00,VWS V14.01,2013-02-04 10:30:00,
2013-02-04 04:32:00,59.5,56.3,29.93,South,184,7.0,7.0,89,0.00,,---,0.00,VWS V14.01,2013-02-04 10:32:00,
2013-02-04 04:37:00,59.5,56.3,29.93,SSE,159,4.0,9.0,89,0.00,,---,0.00,VWS V14.01,2013-02-04 10:37:00,
2013-02-04 04:42:00,59.4,56.2,29.93,South,170,5.0,9.0,89,0.00,,---,0.00,VWS V14.01,2013-02-04 10:42:00,
2013-02-04 04:47:00,59.4,56.5,29.93,SE,133,3.0,9.0,90,0.00,,---,0.00,VWS V14.01,2013-02-04 10:47:00,
2013-02-04 04:52:00,59.3,56.4,29.93,South,186,2.0,9.0,90,0.00,,---,0.00,VWS V14.01,2013-02-04 10:52:00,
2013-02-04 04:57:00,59.3,56.4,29.93,SW,217,2.0,9.0,90,0.00,,---,0.00,VWS V14.01,2013-02-04 10:57:00,
2013-02-04 05:00:00,59.2,56.3,29.92,SSE,167,1.0,9.0,90,0.00,,---,0.00,VWS V14.01,2013-02-04 11:00:00,
2013-02-04 05:02:00,59.2,56.3,29.92,SE,143,2.0,6.0,90,0.00,,---,0.00,VWS V14.01,2013-02-04 11:02:00,
2013-02-04 05:07:00,59.1,56.2,29.93,SSE,154,4.0,7.0,90,0.00,,---,0.00,VWS V14.01,2013-02-04 11:07:00,
2013-02-04 05:12:00,59.1,56.2,29.92,South,184,3.0,8.0,90,0.00,,---,0.00,VWS V14.01,2013-02-04 11:12:00,
2013-02-04 05:17:00,59.0,56.1,29.92,SSE,153,4.0,8.0,90,0.00,,---,0.00,VWS V14.01,2013-02-04 11:17:00,
2013-02-04 05:22:00,58.9,56.0,29.92,SSE,150,6.0,8.0,90,0.00,,---,0.00,VWS V14.01,2013-02-04 11:22:00,
2013-02-04 05:27:00,58.9,56.0,29.92,South,169,2.0,8.0,90,0.00,,---,0.00,VWS V14.01,2013-02-04 11:27:00,
2013-02-04 05:30:00,58.9,56.0,29.93,South,187,2.0,8.0,90,0.00,,---,0.00,VWS V14.01,2013-02-04 11:30:00,
2013-02-04 05:32:00,58.8,55.9,29.93,SW,226,4.0,5.0,90,0.00,,---,0.00,VWS V14.01,2013-02-04 11:32:00,
2013-02-04 05:37:00,58.8,55.9,29.92,SSE,162,4.0,5.0,90,0.00,,---,0.00,VWS V14.01,2013-02-04 11:37:00,
2013-02-04 05:42:00,58.8,55.9,29.92,South,176,4.0,5.0,90,0.00,,---,0.00,VWS V14.01,2013-02-04 11:42:00,
2013-02-04 05:47:00,58.7,56.1,29.92,SSW,211,2.0,5.0,91,0.00,,---,0.00,VWS V14.01,2013-02-04 11:47:00,
2013-02-04 05:52:00,58.7,56.1,29.92,South,181,1.0,5.0,91,0.00,,---,0.00,VWS V14.01,2013-02-04 11:52:00,
2013-02-04 05:57:00,58.7,56.1,29.92,SW,228,2.0,6.0,91,0.00,,---,0.00,VWS V14.01,2013-02-04 11:57:00,
2013-02-04 06:00:00,58.7,56.1,29.92,South,184,4.0,6.0,91,0.00,,---,0.00,VWS V14.01,2013-02-04 12:00:00,
2013-02-04 06:02:00,58.7,56.1,29.93,NW,307,0.0,6.0,91,0.00,,---,0.00,VWS V14.01,2013-02-04 12:02:00,
2013-02-04 06:07:00,58.7,56.1,29.93,SW,215,2.0,6.0,91,0.00,,---,0.00,VWS V14.01,2013-02-04 12:07:00,
2013-02-04 06:12:00,58.7,56.1,29.93,SW,215,1.0,6.0,91,0.00,,---,0.00,VWS V14.01,2013-02-04 12:12:00,
2013-02-04 06:17:00,58.7,56.1,29.93,SSW,206,1.0,6.0,91,0.00,,---,0.00,VWS V14.01,2013-02-04 12:17:00,
2013-02-04 06:22:00,58.7,56.1,29.92,SSE,162,1.0,6.0,91,0.00,,---,0.00,VWS V14.01,2013-02-04 12:22:00,
2013-02-04 06:27:00,58.7,56.1,29.92,SSW,200,2.0,6.0,91,0.00,,---,0.00,VWS V14.01,2013-02-04 12:27:00,
2013-02-04 06:30:00,58.7,56.1,29.92,SW,217,0.0,6.0,91,0.00,,---,0.00,VWS V14.01,2013-02-04 12:30:00,
2013-02-04 06:32:00,58.7,56.1,29.92,SE,141,1.0,1.0,91,0.00,,---,0.00,VWS V14.01,2013-02-04 12:32:00,
2013-02-04 06:37:00,58.6,56.0,29.92,South,190,2.0,4.0,91,0.00,,---,0.00,VWS V14.01,2013-02-04 12:37:00,
2013-02-04 06:42:00,58.6,56.0,29.92,SE,143,3.0,4.0,91,0.00,,---,0.00,VWS V14.01,2013-02-04 12:42:00,
2013-02-04 06:47:00,58.5,55.9,29.92,SSE,152,2.0,4.0,91,0.00,,---,0.00,VWS V14.01,2013-02-04 12:47:00,
2013-02-04 06:52:00,58.6,56.0,29.91,SE,136,1.0,4.0,91,0.00,,---,0.00,VWS V14.01,2013-02-04 12:52:00,
2013-02-04 06:57:00,58.6,56.0,29.91,SSE,163,1.0,4.0,91,0.00,,---,0.00,VWS V14.01,2013-02-04 12:57:00,
2013-02-04 07:00:00,58.6,56.0,29.92,SSE,158,0.0,4.0,91,0.00,,---,0.00,VWS V14.01,2013-02-04 13:00:00,
2013-02-04 07:02:00,58.6,56.0,29.92,SE,131,0.0,1.0,91,0.00,,---,0.00,VWS V14.01,2013-02-04 13:02:00,
2013-02-04 07:07:00,58.6,56.0,29.92,SE,132,0.0,2.0,91,0.00,,---,0.00,VWS V14.01,2013-02-04 13:07:00,
2013-02-04 07:30:00,58.5,55.9,29.92,East,90,0.0,2.0,91,0.00,,---,0.00,VWS V14.01,2013-02-04 13:30:00,
2013-02-04 08:00:00,58.5,55.9,29.92,ENE,68,1.0,3.0,91,0.00,,---,0.00,VWS V14.01,2013-02-04 14:00:00,
2013-02-04 08:58:00,58.7,56.7,29.93,NNW,338,0.0,1.0,93,0.00,,---,0.00,VWS V14.01,2013-02-04 14:58:00,
2013-02-04 09:03:00,58.7,56.7,29.93,NNW,338,0.0,1.0,93,0.00,,---,0.00,VWS V14.01,2013-02-04 15:03:00,
2013-02-04 09:08:00,58.8,56.8,29.93,NNW,338,0.0,1.0,93,0.00,,---,0.00,VWS V14.01,2013-02-04 15:08:00,
2013-02-04 09:13:00,58.9,56.9,29.93,NNW,338,0.0,1.0,93,0.00,,---,0.00,VWS V14.01,2013-02-04 15:13:00,
2013-02-04 09:18:00,58.9,56.6,29.93,NNW,338,0.0,1.0,92,0.00,,---,0.00,VWS V14.01,2013-02-04 15:18:00,
2013-02-04 09:23:00,59.1,57.1,29.92,NNW,343,0.0,1.0,93,0.00,,---,0.00,VWS V14.01,2013-02-04 15:23:00,
2013-02-04 09:28:00,59.3,57.3,29.92,ESE,106,2.0,3.0,93,0.00,,---,0.00,VWS V14.01,2013-02-04 15:28:00,
2013-02-04 09:33:00,59.7,57.7,29.92,East,98,2.0,3.0,93,0.00,,---,0.00,VWS V14.01,2013-02-04 15:33:00,
2013-02-04 09:38:00,60.0,57.7,29.91,ENE,70,3.0,4.0,92,0.00,,---,0.00,VWS V14.01,2013-02-04 15:38:00,
2013-02-04 09:43:00,60.2,57.6,29.91,East,84,3.0,5.0,91,0.00,,---,0.00,VWS V14.01,2013-02-04 15:43:00,
2013-02-04 09:48:00,60.3,57.7,29.91,SSE,162,2.0,5.0,91,0.00,,---,0.00,VWS V14.01,2013-02-04 15:48:00,
2013-02-04 09:53:00,60.4,57.5,29.92,ESE,111,3.0,5.0,90,0.00,,---,0.00,VWS V14.01,2013-02-04 15:53:00,
2013-02-04 09:58:00,60.6,58.0,29.92,SE,136,2.0,5.0,91,0.00,,---,0.00,VWS V14.01,2013-02-04 15:58:00,
2013-02-04 10:03:00,60.7,57.8,29.92,SE,136,2.0,5.0,90,0.00,,---,0.00,VWS V14.01,2013-02-04 16:03:00,
2013-02-04 10:08:00,60.8,57.8,29.92,SSE,159,2.0,5.0,90,0.00,,---,0.00,VWS V14.01,2013-02-04 16:08:00,
2013-02-04 10:13:00,60.9,58.0,29.92,SSW,193,1.0,5.0,90,0.00,,---,0.00,VWS V14.01,2013-02-04 16:13:00,
2013-02-04 10:18:00,60.9,57.6,29.92,SSE,159,2.0,5.0,89,0.00,,---,0.00,VWS V14.01,2013-02-04 16:18:00,
2013-02-04 10:23:00,61.0,57.7,29.92,SSE,152,1.0,5.0,89,0.00,,---,0.00,VWS V14.01,2013-02-04 16:23:00,
2013-02-04 10:28:00,61.3,58.3,29.92,ESE,120,3.0,5.0,90,0.00,,---,0.00,VWS V14.01,2013-02-04 16:28:00,
2013-02-04 10:33:00,61.6,58.3,29.91,SSE,162,3.0,4.0,89,0.00,,---,0.00,VWS V14.01,2013-02-04 16:33:00,
2013-02-04 10:38:00,62.1,58.8,29.91,SE,142,1.0,4.0,89,0.00,,---,0.00,VWS V14.01,2013-02-04 16:38:00,
2013-02-04 10:43:00,62.6,58.4,29.91,South,180,3.0,8.0,86,0.00,,---,0.00,VWS V14.01,2013-02-04 16:43:00,
2013-02-04 10:48:00,62.8,58.6,29.91,SE,142,3.0,8.0,86,0.00,,---,0.00,VWS V14.01,2013-02-04 16:48:00,
2013-02-04 10:53:00,63.1,58.8,29.91,SE,142,2.0,8.0,86,0.00,,---,0.00,VWS V14.01,2013-02-04 16:53:00,
2013-02-04 10:58:00,63.4,58.5,29.90,South,176,4.0,8.0,84,0.00,,---,0.00,VWS V14.01,2013-02-04 16:58:00,
2013-02-04 11:03:00,63.7,58.8,29.90,SW,226,6.0,6.0,84,0.00,,---,0.00,VWS V14.01,2013-02-04 17:03:00,
2013-02-04 11:08:00,64.5,58.9,29.90,SSW,197,5.0,7.0,82,0.00,,---,0.00,VWS V14.01,2013-02-04 17:08:00,
2013-02-04 11:13:00,65.1,59.1,29.90,SE,143,3.0,9.0,81,0.00,,---,0.00,VWS V14.01,2013-02-04 17:13:00,
2013-02-04 11:18:00,65.4,59.4,29.89,SSW,193,4.0,9.0,81,0.00,,---,0.00,VWS V14.01,2013-02-04 17:18:00,
2013-02-04 11:23:00,66.4,59.7,29.89,SSW,200,7.0,10.0,79,0.00,,---,0.00,VWS V14.01,2013-02-04 17:23:00,
2013-02-04 11:28:00,66.9,59.8,29.89,SSE,155,3.0,10.0,78,0.00,,---,0.00,VWS V14.01,2013-02-04 17:28:00,
2013-02-04 11:33:00,67.2,60.1,29.89,SSW,210,5.0,6.0,78,0.00,,---,0.00,VWS V14.01,2013-02-04 17:33:00,
2013-02-04 11:38:00,67.2,59.8,29.89,SSW,212,3.0,10.0,77,0.00,,---,0.00,VWS V14.01,2013-02-04 17:38:00,
2013-02-04 11:43:00,67.2,59.4,29.89,South,179,3.0,10.0,76,0.00,,---,0.00,VWS V14.01,2013-02-04 17:43:00,
2013-02-04 11:48:00,67.4,59.2,29.89,SSE,161,7.0,12.0,75,0.00,,---,0.00,VWS V14.01,2013-02-04 17:48:00,
2013-02-04 11:53:00,67.5,58.9,29.89,SW,215,5.0,13.0,74,0.00,,---,0.00,VWS V14.01,2013-02-04 17:53:00,
2013-02-04 11:58:00,67.9,58.9,29.89,SW,222,10.0,13.0,73,0.00,,---,0.00,VWS V14.01,2013-02-04 17:58:00,
2013-02-04 12:03:00,68.1,59.1,29.88,SW,231,8.0,10.0,73,0.00,,---,0.00,VWS V14.01,2013-02-04 18:03:00,
2013-02-04 12:08:00,68.4,59.0,29.88,SSW,210,5.0,11.0,72,0.00,,---,0.00,VWS V14.01,2013-02-04 18:08:00,
2013-02-04 12:13:00,68.4,59.0,29.88,SSW,195,3.0,11.0,72,0.00,,---,0.00,VWS V14.01,2013-02-04 18:13:00,
2013-02-04 12:18:00,68.9,59.1,29.88,SSW,208,4.0,11.0,71,0.00,,---,0.00,VWS V14.01,2013-02-04 18:18:00,
2013-02-04 12:23:00,69.3,59.1,29.87,SW,217,7.0,11.0,70,0.00,,---,0.00,VWS V14.01,2013-02-04 18:23:00,
2013-02-04 12:28:00,69.4,59.2,29.87,SW,225,4.0,11.0,70,0.00,,---,0.00,VWS V14.01,2013-02-04 18:28:00,
2013-02-04 12:33:00,69.7,59.1,29.87,WSW,237,4.0,13.0,69,0.00,,---,0.00,VWS V14.01,2013-02-04 18:33:00,
2013-02-04 12:38:00,69.6,59.4,29.87,SW,232,3.0,13.0,70,0.00,,---,0.00,VWS V14.01,2013-02-04 18:38:00,
2013-02-04 12:43:00,69.7,59.1,29.86,SE,128,3.0,13.0,69,0.00,,---,0.00,VWS V14.01,2013-02-04 18:43:00,
2013-02-04 12:48:00,69.6,59.0,29.86,ESE,115,5.0,13.0,69,0.00,,---,0.00,VWS V14.01,2013-02-04 18:48:00,
2013-02-04 12:53:00,69.8,59.2,29.86,SSE,163,7.0,13.0,69,0.00,,---,0.00,VWS V14.01,2013-02-04 18:53:00,
2013-02-04 12:58:00,70.1,59.5,29.86,SSW,205,2.0,13.0,69,0.00,,---,0.00,VWS V14.01,2013-02-04 18:58:00,
2013-02-04 13:03:00,70.2,58.7,29.86,SW,217,4.0,7.0,67,0.00,,---,0.00,VWS V14.01,2013-02-04 19:03:00,
2013-02-04 13:08:00,69.9,58.5,29.85,West,270,2.0,10.0,67,0.00,,---,0.00,VWS V14.01,2013-02-04 19:08:00,
2013-02-04 13:13:00,70.1,58.7,29.85,SW,218,1.0,10.0,67,0.00,,---,0.00,VWS V14.01,2013-02-04 19:13:00,
2013-02-04 13:18:00,70.3,58.8,29.84,SSW,193,7.0,10.0,67,0.00,,---,0.00,VWS V14.01,2013-02-04 19:18:00,
2013-02-04 13:23:00,70.3,58.4,29.84,West,281,4.0,10.0,66,0.00,,---,0.00,VWS V14.01,2013-02-04 19:23:00,
2013-02-04 13:28:00,70.7,58.4,29.84,SSW,201,7.0,10.0,65,0.00,,---,0.00,VWS V14.01,2013-02-04 19:28:00,
2013-02-04 13:33:00,70.8,58.9,29.84,SW,214,2.0,6.0,66,0.00,,---,0.00,VWS V14.01,2013-02-04 19:33:00,
2013-02-04 13:38:00,71.1,58.8,29.83,West,260,2.0,6.0,65,0.00,,---,0.00,VWS V14.01,2013-02-04 19:38:00,
2013-02-04 13:43:00,71.1,58.8,29.83,WSW,249,1.0,11.0,65,0.00,,---,0.00,VWS V14.01,2013-02-04 19:43:00,
2013-02-04 13:48:00,71.3,58.9,29.83,SSW,207,0.0,11.0,65,0.00,,---,0.00,VWS V14.01,2013-02-04 19:48:00,
2013-02-04 13:53:00,71.6,58.8,29.83,SSW,212,2.0,11.0,64,0.00,,---,0.00,VWS V14.01,2013-02-04 19:53:00,
2013-02-04 13:58:00,72.0,58.7,29.82,SW,214,4.0,11.0,63,0.00,,---,0.00,VWS V14.01,2013-02-04 19:58:00,
2013-02-04 14:03:00,73.1,59.3,29.82,SW,222,2.0,6.0,62,0.00,,---,0.00,VWS V14.01,2013-02-04 20:03:00,
2013-02-04 14:08:00,73.7,59.0,29.82,West,263,3.0,8.0,60,0.00,,---,0.00,VWS V14.01,2013-02-04 20:08:00,
2013-02-04 14:13:00,73.5,58.8,29.82,SW,214,3.0,8.0,60,0.00,,---,0.00,VWS V14.01,2013-02-04 20:13:00,
2013-02-04 14:18:00,73.3,58.6,29.81,South,190,2.0,8.0,60,0.00,,---,0.00,VWS V14.01,2013-02-04 20:18:00,
2013-02-04 14:23:00,73.3,59.5,29.81,SE,129,1.0,9.0,62,0.00,,---,0.00,VWS V14.01,2013-02-04 20:23:00,
2013-02-04 14:28:00,74.4,58.7,29.81,SW,219,5.0,9.0,58,0.00,,---,0.00,VWS V14.01,2013-02-04 20:28:00,
2013-02-04 14:33:00,74.8,59.0,29.81,West,274,1.0,8.0,58,0.00,,---,0.00,VWS V14.01,2013-02-04 20:33:00,
2013-02-04 14:38:00,75.1,58.8,29.81,SW,228,2.0,8.0,57,0.00,,---,0.00,VWS V14.01,2013-02-04 20:38:00,
2013-02-04 14:43:00,75.0,58.8,29.81,SSW,200,3.0,8.0,57,0.00,,---,0.00,VWS V14.01,2013-02-04 20:43:00,
2013-02-04 14:48:00,75.1,59.3,29.80,WSW,243,4.0,8.0,58,0.00,,---,0.00,VWS V14.01,2013-02-04 20:48:00,
2013-02-04 14:53:00,75.6,59.3,29.80,WSW,257,1.0,8.0,57,0.00,,---,0.00,VWS V14.01,2013-02-04 20:53:00,
2013-02-04 14:58:00,76.2,59.4,29.80,SSW,210,1.0,8.0,56,0.00,,---,0.00,VWS V14.01,2013-02-04 20:58:00,
2013-02-04 15:03:00,76.3,59.0,29.80,SE,137,0.0,4.0,55,0.00,,---,0.00,VWS V14.01,2013-02-04 21:03:00,
2013-02-04 15:08:00,76.0,58.7,29.79,SSW,201,3.0,8.0,55,0.00,,---,0.00,VWS V14.01,2013-02-04 21:08:00,
2013-02-04 15:13:00,76.4,59.1,29.79,ESE,110,3.0,8.0,55,0.00,,---,0.00,VWS V14.01,2013-02-04 21:13:00,
2013-02-04 15:18:00,76.2,58.9,29.78,WSW,246,2.0,8.0,55,0.00,,---,0.00,VWS V14.01,2013-02-04 21:18:00,
2013-02-04 15:23:00,76.1,58.8,29.78,NE,43,1.0,8.0,55,0.00,,---,0.00,VWS V14.01,2013-02-04 21:23:00,
2013-02-04 15:28:00,76.6,59.2,29.78,SSW,207,2.0,8.0,55,0.00,,---,0.00,VWS V14.01,2013-02-04 21:28:00,
2013-02-04 15:33:00,77.0,59.1,29.78,SSE,150,0.0,2.0,54,0.00,,---,0.00,VWS V14.01,2013-02-04 21:33:00,
2013-02-04 15:38:00,76.9,58.5,29.78,WSW,239,2.0,7.0,53,0.00,,---,0.00,VWS V14.01,2013-02-04 21:38:00,
2013-02-04 15:43:00,76.8,58.4,29.78,SSW,210,2.0,7.0,53,0.00,,---,0.00,VWS V14.01,2013-02-04 21:43:00,
2013-02-04 15:48:00,76.5,58.1,29.78,SE,146,4.0,8.0,53,0.00,,---,0.00,VWS V14.01,2013-02-04 21:48:00,
2013-02-04 15:53:00,76.8,58.4,29.77,SSE,158,4.0,8.0,53,0.00,,---,0.00,VWS V14.01,2013-02-04 21:53:00,
2013-02-04 15:58:00,76.4,58.0,29.77,SE,134,1.0,8.0,53,0.00,,---,0.00,VWS V14.01,2013-02-04 21:58:00,
2013-02-04 16:03:00,76.9,58.5,29.78,SW,228,2.0,4.0,53,0.00,,---,0.00,VWS V14.01,2013-02-04 22:03:00,
2013-02-04 16:08:00,76.9,58.5,29.78,SSE,153,2.0,4.0,53,0.00,,---,0.00,VWS V14.01,2013-02-04 22:08:00,
2013-02-04 16:13:00,77.2,57.7,29.77,SW,232,0.0,4.0,51,0.00,,---,0.00,VWS V14.01,2013-02-04 22:13:00,
2013-02-04 16:18:00,77.6,58.1,29.77,SW,226,1.0,4.0,51,0.00,,---,0.00,VWS V14.01,2013-02-04 22:18:00,
2013-02-04 16:23:00,77.8,57.7,29.77,SSW,205,5.0,8.0,50,0.00,,---,0.00,VWS V14.01,2013-02-04 22:23:00,
2013-02-04 16:28:00,77.4,57.9,29.77,SSW,207,5.0,8.0,51,0.00,,---,0.00,VWS V14.01,2013-02-04 22:28:00,
2013-02-04 16:33:00,77.2,57.1,29.77,WSW,252,1.0,7.0,50,0.00,,---,0.00,VWS V14.01,2013-02-04 22:33:00,
2013-02-04 16:38:00,77.1,56.5,29.77,SW,219,2.0,7.0,49,0.00,,---,0.00,VWS V14.01,2013-02-04 22:38:00,
2013-02-04 16:43:00,77.2,56.6,29.77,SSW,203,2.0,7.0,49,0.00,,---,0.00,VWS V14.01,2013-02-04 22:43:00,
2013-02-04 16:48:00,77.2,56.0,29.77,SW,224,0.0,7.0,48,0.00,,---,0.00,VWS V14.01,2013-02-04 22:48:00,
2013-02-04 16:53:00,77.4,56.2,29.77,SW,215,4.0,7.0,48,0.00,,---,0.00,VWS V14.01,2013-02-04 22:53:00,
2013-02-04 16:58:00,77.2,56.6,29.77,SW,214,3.0,7.0,49,0.00,,---,0.00,VWS V14.01,2013-02-04 22:58:00,
2013-02-04 17:03:00,77.0,55.8,29.77,SSW,204,5.0,6.0,48,0.00,,---,0.00,VWS V14.01,2013-02-04 23:03:00,
2013-02-04 17:08:00,76.6,55.5,29.77,SE,143,2.0,6.0,48,0.00,,---,0.00,VWS V14.01,2013-02-04 23:08:00,
2013-02-04 17:13:00,76.0,56.0,29.77,South,169,2.0,6.0,50,0.00,,---,0.00,VWS V14.01,2013-02-04 23:13:00,
2013-02-04 17:18:00,75.5,56.1,29.77,South,169,0.0,6.0,51,0.00,,---,0.00,VWS V14.01,2013-02-04 23:18:00,
2013-02-04 17:23:00,75.2,55.3,29.77,SSW,211,1.0,6.0,50,0.00,,---,0.00,VWS V14.01,2013-02-04 23:23:00,
2013-02-04 17:28:00,75.0,54.6,29.77,SW,221,3.0,6.0,49,0.00,,---,0.00,VWS V14.01,2013-02-04 23:28:00,
2013-02-04 17:33:00,74.6,54.2,29.78,SW,214,0.0,0.0,49,0.00,,---,0.00,VWS V14.01,2013-02-04 23:33:00,
2013-02-04 17:38:00,74.1,54.8,29.78,West,270,0.0,1.0,51,0.00,,---,0.00,VWS V14.01,2013-02-04 23:38:00,
2013-02-04 17:43:00,73.5,54.8,29.78,West,269,0.0,1.0,52,0.00,,---,0.00,VWS V14.01,2013-02-04 23:43:00,
2013-02-04 17:48:00,72.9,55.3,29.78,West,269,0.0,1.0,54,0.00,,---,0.00,VWS V14.01,2013-02-04 23:48:00,
2013-02-04 17:53:00,72.3,54.7,29.78,West,281,0.0,1.0,54,0.00,,---,0.00,VWS V14.01,2013-02-04 23:53:00,
2013-02-04 17:58:00,71.6,55.1,29.79,West,281,0.0,1.0,56,0.00,,---,0.00,VWS V14.01,2013-02-04 23:58:00,
2013-02-04 18:03:00,71.1,55.1,29.79,West,281,0.0,1.0,57,0.00,,---,0.00,VWS V14.01,2013-02-05 00:03:00,
2013-02-04 18:08:00,70.8,54.8,29.79,West,281,0.0,1.0,57,0.00,,---,0.00,VWS V14.01,2013-02-05 00:08:00,
2013-02-04 18:13:00,70.3,54.4,29.79,West,281,0.0,1.0,57,0.00,,---,0.00,VWS V14.01,2013-02-05 00:13:00,
2013-02-04 18:18:00,69.6,54.2,29.79,West,281,0.0,1.0,58,0.00,,---,0.00,VWS V14.01,2013-02-05 00:18:00,
2013-02-04 18:23:00,68.9,54.5,29.79,West,281,0.0,1.0,60,0.00,,---,0.00,VWS V14.01,2013-02-05 00:23:00,
2013-02-04 18:28:00,68.4,54.4,29.79,West,281,0.0,1.0,61,0.00,,---,0.00,VWS V14.01,2013-02-05 00:28:00,
2013-02-04 18:33:00,68.0,54.5,29.79,West,281,0.0,0.0,62,0.00,,---,0.00,VWS V14.01,2013-02-05 00:33:00,
2013-02-04 18:38:00,68.0,54.5,29.80,West,281,0.0,0.0,62,0.00,,---,0.00,VWS V14.01,2013-02-05 00:38:00,
2013-02-04 18:43:00,68.1,54.6,29.80,West,281,0.0,0.0,62,0.00,,---,0.00,VWS V14.01,2013-02-05 00:43:00,
2013-02-04 18:48:00,68.0,54.5,29.80,West,281,0.0,0.0,62,0.00,,---,0.00,VWS V14.01,2013-02-05 00:48:00,
2013-02-04 18:53:00,67.8,54.8,29.80,West,281,0.0,0.0,63,0.00,,---,0.00,VWS V14.01,2013-02-05 00:53:00,
2013-02-04 18:58:00,67.6,54.6,29.80,West,281,0.0,0.0,63,0.00,,---,0.00,VWS V14.01,2013-02-05 00:58:00,
2013-02-04 19:03:00,67.5,54.5,29.80,West,281,0.0,0.0,63,0.00,,---,0.00,VWS V14.01,2013-02-05 01:03:00,
2013-02-04 19:08:00,67.6,54.6,29.81,West,281,0.0,0.0,63,0.00,,---,0.00,VWS V14.01,2013-02-05 01:08:00,
2013-02-04 19:13:00,67.6,54.6,29.81,West,281,0.0,0.0,63,0.00,,---,0.00,VWS V14.01,2013-02-05 01:13:00,
2013-02-04 19:18:00,67.1,54.1,29.81,West,281,0.0,0.0,63,0.00,,---,0.00,VWS V14.01,2013-02-05 01:18:00,
2013-02-04 19:23:00,66.5,54.0,29.81,West,281,0.0,0.0,64,0.00,,---,0.00,VWS V14.01,2013-02-05 01:23:00,
2013-02-04 19:28:00,65.8,54.5,29.81,West,281,0.0,0.0,67,0.00,,---,0.00,VWS V14.01,2013-02-05 01:28:00,
2013-02-04 19:33:00,65.9,54.2,29.81,WNW,283,0.0,1.0,66,0.00,,---,0.00,VWS V14.01,2013-02-05 01:33:00,
2013-02-04 19:38:00,66.1,54.4,29.81,West,281,0.0,1.0,66,0.00,,---,0.00,VWS V14.01,2013-02-05 01:38:00,
2013-02-04 19:43:00,65.8,54.1,29.82,West,281,0.0,1.0,66,0.00,,---,0.00,VWS V14.01,2013-02-05 01:43:00,
2013-02-04 19:48:00,65.6,54.4,29.82,West,281,0.0,1.0,67,0.00,,---,0.00,VWS V14.01,2013-02-05 01:48:00,
2013-02-04 19:53:00,65.9,54.7,29.82,West,281,0.0,1.0,67,0.00,,---,0.00,VWS V14.01,2013-02-05 01:53:00,
2013-02-04 19:58:00,66.0,54.3,29.82,WNW,283,0.0,1.0,66,0.00,,---,0.00,VWS V14.01,2013-02-05 01:58:00,
2013-02-04 20:03:00,66.0,54.3,29.82,NNW,348,0.0,1.0,66,0.00,,---,0.00,VWS V14.01,2013-02-05 02:03:00,
2013-02-04 20:08:00,65.5,54.3,29.82,North,352,0.0,1.0,67,0.00,,---,0.00,VWS V14.01,2013-02-05 02:08:00,
2013-02-04 20:13:00,64.9,54.1,29.82,North,352,1.0,1.0,68,0.00,,---,0.00,VWS V14.01,2013-02-05 02:13:00,
2013-02-04 20:18:00,64.5,54.5,29.82,North,351,0.0,1.0,70,0.00,,---,0.00,VWS V14.01,2013-02-05 02:18:00,
2013-02-04 20:23:00,64.5,54.5,29.82,North,352,0.0,1.0,70,0.00,,---,0.00,VWS V14.01,2013-02-05 02:23:00,
2013-02-04 20:28:00,64.6,54.6,29.82,North,351,0.0,1.0,70,0.00,,---,0.00,VWS V14.01,2013-02-05 02:28:00,
2013-02-04 20:33:00,64.9,54.5,29.83,North,352,0.0,1.0,69,0.00,,---,0.00,VWS V14.01,2013-02-05 02:33:00,
2013-02-04 20:38:00,65.0,54.6,29.83,North,350,1.0,1.0,69,0.00,,---,0.00,VWS V14.01,2013-02-05 02:38:00,
2013-02-04 20:43:00,64.8,54.4,29.83,NNW,347,1.0,1.0,69,0.00,,---,0.00,VWS V14.01,2013-02-05 02:43:00,
2013-02-04 20:48:00,64.6,54.6,29.83,NNW,347,0.0,1.0,70,0.00,,---,0.00,VWS V14.01,2013-02-05 02:48:00,
2013-02-04 20:53:00,64.6,54.6,29.83,NNW,347,0.0,1.0,70,0.00,,---,0.00,VWS V14.01,2013-02-05 02:53:00,
2013-02-04 20:58:00,64.9,54.5,29.83,NNW,347,0.0,1.0,69,0.00,,---,0.00,VWS V14.01,2013-02-05 02:58:00,
2013-02-04 21:03:00,64.7,54.3,29.83,NNW,347,0.0,0.0,69,0.00,,---,0.00,VWS V14.01,2013-02-05 03:03:00,
2013-02-04 21:08:00,64.1,53.7,29.83,NNW,347,0.0,0.0,69,0.00,,---,0.00,VWS V14.01,2013-02-05 03:08:00,
2013-02-04 21:13:00,63.7,54.5,29.84,NNW,347,0.0,0.0,72,0.00,,---,0.00,VWS V14.01,2013-02-05 03:13:00,
2013-02-04 21:18:00,63.9,54.3,29.84,NNW,347,0.0,1.0,71,0.00,,---,0.00,VWS V14.01,2013-02-05 03:18:00,
2013-02-04 21:23:00,63.8,54.2,29.84,NNE,18,0.0,1.0,71,0.00,,---,0.00,VWS V14.01,2013-02-05 03:23:00,
2013-02-04 21:28:00,63.8,54.2,29.84,NNE,18,0.0,1.0,71,0.00,,---,0.00,VWS V14.01,2013-02-05 03:28:00,
2013-02-04 21:33:00,63.9,54.3,29.84,NNE,15,0.0,1.0,71,0.00,,---,0.00,VWS V14.01,2013-02-05 03:33:00,
2013-02-04 21:38:00,63.7,54.1,29.84,NNE,15,0.0,1.0,71,0.00,,---,0.00,VWS V14.01,2013-02-05 03:38:00,
2013-02-04 21:43:00,63.3,53.4,29.83,East,80,0.0,1.0,70,0.00,,---,0.00,VWS V14.01,2013-02-05 03:43:00,
2013-02-04 21:48:00,62.2,53.5,29.83,NNE,32,1.0,1.0,73,0.00,,---,0.00,VWS V14.01,2013-02-05 03:48:00,
2013-02-04 21:53:00,61.9,53.2,29.83,NE,40,1.0,3.0,73,0.00,,---,0.00,VWS V14.01,2013-02-05 03:53:00,
2013-02-04 21:58:00,61.4,53.4,29.83,North,10,0.0,3.0,75,0.00,,---,0.00,VWS V14.01,2013-02-05 03:58:00,
2013-02-04 22:03:00,61.2,53.2,29.83,North,10,0.0,1.0,75,0.00,,---,0.00,VWS V14.01,2013-02-05 04:03:00,
2013-02-04 22:08:00,61.3,53.7,29.83,North,8,0.0,1.0,76,0.00,,---,0.00,VWS V14.01,2013-02-05 04:08:00,
2013-02-04 22:13:00,61.4,53.8,29.83,North,9,0.0,2.0,76,0.00,,---,0.00,VWS V14.01,2013-02-05 04:13:00,
2013-02-04 22:18:00,61.4,53.8,29.83,North,350,0.0,2.0,76,0.00,,---,0.00,VWS V14.01,2013-02-05 04:18:00,
2013-02-04 22:23:00,61.2,53.6,29.83,North,349,1.0,2.0,76,0.00,,---,0.00,VWS V14.01,2013-02-05 04:23:00,
2013-02-04 22:28:00,60.9,53.7,29.84,NNW,343,0.0,2.0,77,0.00,,---,0.00,VWS V14.01,2013-02-05 04:28:00,
2013-02-04 22:33:00,60.8,53.5,29.84,NE,41,3.0,3.0,77,0.00,,---,0.00,VWS V14.01,2013-02-05 04:33:00,
2013-02-04 22:38:00,60.2,53.3,29.84,NNE,20,2.0,4.0,78,0.00,,---,0.00,VWS V14.01,2013-02-05 04:38:00,
2013-02-04 22:43:00,60.3,53.4,29.84,NE,46,2.0,4.0,78,0.00,,---,0.00,VWS V14.01,2013-02-05 04:43:00,
2013-02-04 22:48:00,60.5,53.6,29.84,NE,39,2.0,4.0,78,0.00,,---,0.00,VWS V14.01,2013-02-05 04:48:00,
2013-02-04 22:53:00,60.5,53.6,29.84,NE,37,2.0,4.0,78,0.00,,---,0.00,VWS V14.01,2013-02-05 04:53:00,
2013-02-04 22:58:00,60.8,54.3,29.84,NE,56,1.0,4.0,79,0.00,,---,0.00,VWS V14.01,2013-02-05 04:58:00,
2013-02-04 23:00:00,60.8,54.3,29.84,NE,48,1.0,4.0,79,0.00,,---,0.00,VWS V14.01,2013-02-05 05:00:00,
2013-02-04 23:01:00,60.9,54.3,29.84,NE,48,0.0,1.0,79,0.00,,---,0.00,VWS V14.01,2013-02-05 05:01:00,
2013-02-04 23:06:00,60.8,54.3,29.84,NE,50,1.0,1.0,79,0.00,,---,0.00,VWS V14.01,2013-02-05 05:06:00,
2013-02-04 23:11:00,60.6,54.4,29.84,NE,49,0.0,1.0,80,0.00,,---,0.00,VWS V14.01,2013-02-05 05:11:00,
2013-02-04 23:16:00,60.5,54.7,29.84,NE,49,0.0,1.0,81,0.00,,---,0.00,VWS V14.01,2013-02-05 05:16:00,
2013-02-04 23:21:00,60.4,54.9,29.84,NE,49,0.0,1.0,82,0.00,,---,0.00,VWS V14.01,2013-02-05 05:21:00,
2013-02-04 23:26:00,60.2,54.7,29.85,NE,49,0.0,1.0,82,0.00,,---,0.00,VWS V14.01,2013-02-05 05:26:00,
2013-02-04 23:31:00,59.9,54.4,29.85,NE,49,0.0,1.0,82,0.00,,---,0.00,VWS V14.01,2013-02-05 05:31:00,
2013-02-04 23:36:00,59.5,54.0,29.85,NNE,13,1.0,1.0,82,0.00,,---,0.00,VWS V14.01,2013-02-05 05:36:00,
2013-02-04 23:41:00,59.5,54.7,29.85,NNE,13,0.0,1.0,84,0.00,,---,0.00,VWS V14.01,2013-02-05 05:41:00,
2013-02-04 23:46:00,59.3,54.2,29.85,NNE,13,0.0,1.0,83,0.00,,---,0.00,VWS V14.01,2013-02-05 05:46:00,
2013-02-04 23:51:00,59.3,54.8,29.85,NNE,13,0.0,1.0,85,0.00,,---,0.00,VWS V14.01,2013-02-05 05:51:00,
2013-02-04 23:56:00,59.5,55.0,29.85,NNE,13,0.0,1.0,85,0.00,,---,0.00,VWS V14.01,2013-02-05 05:56:00,